sensor_id;sensor_type;location;lat;lon;timestamp;P1;durP1;ratioP1;P2;durP2;ratioP2
62258;SDS011;48241;48.824;10.102;2022-09-30T00:00:56;8.63;;;5.07;;
62258;SDS011;48241;48.824;10.102;2022-09-30T00:03:22;9.70;;;5.00;;
62258;SDS011;48241;48.824;10.102;2022-09-30T00:05:54;13.77;;;5.25;;
62258;SDS011;48241;48.824;10.102;2022-09-30T00:08:21;11.10;;;5.53;;
62258;SDS011;48241;48.824;10.102;2022-09-30T00:10:46;14.35;;;6.93;;
62258;SDS011;48241;48.824;10.102;2022-09-30T00:13:12;13.55;;;6.80;;
62258;SDS011;48241;48.824;10.102;2022-09-30T00:15:38;14.23;;;6.82;;
62258;SDS011;48241;48.824;10.102;2022-09-30T00:18:04;12.85;;;6.50;;
62258;SDS011;48241;48.824;10.102;2022-09-30T00:20:29;11.15;;;6.20;;
62258;SDS011;48241;48.824;10.102;2022-09-30T00:22:55;14.63;;;6.28;;
62258;SDS011;48241;48.824;10.102;2022-09-30T00:25:20;11.55;;;6.30;;
62258;SDS011;48241;48.824;10.102;2022-09-30T00:27:46;12.18;;;6.30;;
62258;SDS011;48241;48.824;10.102;2022-09-30T00:30:11;9.77;;;5.72;;
62258;SDS011;48241;48.824;10.102;2022-09-30T00:32:37;15.23;;;6.28;;
62258;SDS011;48241;48.824;10.102;2022-09-30T00:35:02;16.08;;;7.45;;
62258;SDS011;48241;48.824;10.102;2022-09-30T00:37:29;13.07;;;6.57;;
62258;SDS011;48241;48.824;10.102;2022-09-30T00:39:54;13.15;;;7.57;;
62258;SDS011;48241;48.824;10.102;2022-09-30T00:42:20;14.50;;;7.80;;
62258;SDS011;48241;48.824;10.102;2022-09-30T00:52:45;11.75;;;8.38;;
62258;SDS011;48241;48.824;10.102;2022-09-30T00:56:07;16.13;;;8.50;;
62258;SDS011;48241;48.824;10.102;2022-09-30T00:58:23;12.20;;;7.57;;
62258;SDS011;48241;48.824;10.102;2022-09-30T01:00:55;10.50;;;6.60;;
62258;SDS011;48241;48.824;10.102;2022-09-30T01:03:23;12.63;;;6.53;;
62258;SDS011;48241;48.824;10.102;2022-09-30T01:05:49;10.82;;;6.68;;
62258;SDS011;48241;48.824;10.102;2022-09-30T01:08:16;12.43;;;6.47;;
62258;SDS011;48241;48.824;10.102;2022-09-30T01:10:44;13.70;;;7.32;;
62258;SDS011;48241;48.824;10.102;2022-09-30T01:13:09;9.57;;;6.20;;
62258;SDS011;48241;48.824;10.102;2022-09-30T01:15:50;9.20;;;6.18;;
62258;SDS011;48241;48.824;10.102;2022-09-30T01:29:16;10.40;;;5.93;;
62258;SDS011;48241;48.824;10.102;2022-09-30T01:40:49;11.05;;;6.10;;
62258;SDS011;48241;48.824;10.102;2022-09-30T01:43:45;12.07;;;6.15;;
62258;SDS011;48241;48.824;10.102;2022-09-30T01:46:25;12.60;;;5.85;;
62258;SDS011;48241;48.824;10.102;2022-09-30T01:52:33;12.77;;;5.65;;
62258;SDS011;48241;48.824;10.102;2022-09-30T02:00:27;9.02;;;5.05;;
62258;SDS011;48241;48.824;10.102;2022-09-30T02:03:09;19.15;;;7.72;;
62258;SDS011;48241;48.824;10.102;2022-09-30T02:06:01;13.57;;;7.85;;
62258;SDS011;48241;48.824;10.102;2022-09-30T02:08:34;17.67;;;8.45;;
62258;SDS011;48241;48.824;10.102;2022-09-30T02:11:07;8.10;;;5.18;;
62258;SDS011;48241;48.824;10.102;2022-09-30T02:13:44;10.00;;;5.43;;
62258;SDS011;48241;48.824;10.102;2022-09-30T02:16:28;11.10;;;5.15;;
62258;SDS011;48241;48.824;10.102;2022-09-30T02:19:13;10.40;;;5.50;;
62258;SDS011;48241;48.824;10.102;2022-09-30T02:21:42;14.95;;;5.25;;
62258;SDS011;48241;48.824;10.102;2022-09-30T02:24:13;7.70;;;5.07;;
62258;SDS011;48241;48.824;10.102;2022-09-30T02:26:43;10.07;;;5.32;;
62258;SDS011;48241;48.824;10.102;2022-09-30T02:29:15;9.98;;;5.38;;
62258;SDS011;48241;48.824;10.102;2022-09-30T02:31:47;19.33;;;8.63;;
62258;SDS011;48241;48.824;10.102;2022-09-30T02:34:21;25.50;;;9.48;;
62258;SDS011;48241;48.824;10.102;2022-09-30T02:37:04;22.50;;;9.35;;
62258;SDS011;48241;48.824;10.102;2022-09-30T02:39:42;17.33;;;7.18;;
62258;SDS011;48241;48.824;10.102;2022-09-30T02:42:25;9.73;;;5.22;;
62258;SDS011;48241;48.824;10.102;2022-09-30T02:44:52;12.63;;;5.72;;
62258;SDS011;48241;48.824;10.102;2022-09-30T02:59:03;10.18;;;4.90;;
62258;SDS011;48241;48.824;10.102;2022-09-30T03:01:29;7.63;;;4.60;;
62258;SDS011;48241;48.824;10.102;2022-09-30T03:04:00;11.95;;;3.90;;
62258;SDS011;48241;48.824;10.102;2022-09-30T03:06:30;8.82;;;3.60;;
62258;SDS011;48241;48.824;10.102;2022-09-30T03:08:56;7.78;;;3.70;;
62258;SDS011;48241;48.824;10.102;2022-09-30T03:11:23;9.02;;;3.85;;
62258;SDS011;48241;48.824;10.102;2022-09-30T03:13:58;7.10;;;3.65;;
62258;SDS011;48241;48.824;10.102;2022-09-30T03:19:46;14.75;;;6.22;;
62258;SDS011;48241;48.824;10.102;2022-09-30T03:22:38;14.65;;;6.07;;
62258;SDS011;48241;48.824;10.102;2022-09-30T03:28:13;7.00;;;3.60;;
62258;SDS011;48241;48.824;10.102;2022-09-30T03:30:53;11.15;;;4.47;;
62258;SDS011;48241;48.824;10.102;2022-09-30T03:36:22;11.45;;;4.93;;
62258;SDS011;48241;48.824;10.102;2022-09-30T03:41:32;11.63;;;4.78;;
62258;SDS011;48241;48.824;10.102;2022-09-30T03:44:16;10.10;;;5.65;;
62258;SDS011;48241;48.824;10.102;2022-09-30T03:46:57;10.45;;;5.30;;
62258;SDS011;48241;48.824;10.102;2022-09-30T03:49:29;12.32;;;6.45;;
62258;SDS011;48241;48.824;10.102;2022-09-30T03:51:59;10.63;;;5.22;;
62258;SDS011;48241;48.824;10.102;2022-09-30T03:54:31;8.18;;;4.78;;
62258;SDS011;48241;48.824;10.102;2022-09-30T03:56:57;9.20;;;5.00;;
62258;SDS011;48241;48.824;10.102;2022-09-30T03:59:27;10.52;;;4.80;;
62258;SDS011;48241;48.824;10.102;2022-09-30T04:01:53;11.57;;;4.90;;
62258;SDS011;48241;48.824;10.102;2022-09-30T04:04:21;11.27;;;6.28;;
62258;SDS011;48241;48.824;10.102;2022-09-30T04:06:47;8.40;;;4.85;;
62258;SDS011;48241;48.824;10.102;2022-09-30T04:09:12;16.60;;;6.40;;
62258;SDS011;48241;48.824;10.102;2022-09-30T04:11:38;8.30;;;4.82;;
62258;SDS011;48241;48.824;10.102;2022-09-30T04:14:04;14.10;;;6.07;;
62258;SDS011;48241;48.824;10.102;2022-09-30T04:16:30;10.27;;;5.82;;
62258;SDS011;48241;48.824;10.102;2022-09-30T04:18:56;9.75;;;4.65;;
62258;SDS011;48241;48.824;10.102;2022-09-30T04:21:22;11.68;;;5.07;;
62258;SDS011;48241;48.824;10.102;2022-09-30T04:23:48;10.20;;;4.93;;
62258;SDS011;48241;48.824;10.102;2022-09-30T04:26:15;11.07;;;5.75;;
62258;SDS011;48241;48.824;10.102;2022-09-30T04:28:44;11.82;;;7.38;;
62258;SDS011;48241;48.824;10.102;2022-09-30T04:31:10;10.02;;;4.65;;
62258;SDS011;48241;48.824;10.102;2022-09-30T04:33:37;11.65;;;4.55;;
62258;SDS011;48241;48.824;10.102;2022-09-30T04:36:03;7.55;;;4.07;;
62258;SDS011;48241;48.824;10.102;2022-09-30T04:38:29;9.05;;;5.43;;
62258;SDS011;48241;48.824;10.102;2022-09-30T04:40:55;10.57;;;5.93;;
62258;SDS011;48241;48.824;10.102;2022-09-30T04:43:22;10.45;;;5.72;;
62258;SDS011;48241;48.824;10.102;2022-09-30T04:45:49;11.80;;;6.30;;
62258;SDS011;48241;48.824;10.102;2022-09-30T04:48:16;14.43;;;6.47;;
62258;SDS011;48241;48.824;10.102;2022-09-30T04:50:43;12.35;;;6.53;;
62258;SDS011;48241;48.824;10.102;2022-09-30T04:53:10;12.98;;;7.00;;
62258;SDS011;48241;48.824;10.102;2022-09-30T04:55:36;12.88;;;6.85;;
62258;SDS011;48241;48.824;10.102;2022-09-30T04:58:02;10.48;;;4.43;;
62258;SDS011;48241;48.824;10.102;2022-09-30T05:00:28;11.57;;;5.28;;
62258;SDS011;48241;48.824;10.102;2022-09-30T05:02:54;18.95;;;4.93;;
62258;SDS011;48241;48.824;10.102;2022-09-30T05:05:20;13.10;;;4.88;;
62258;SDS011;48241;48.824;10.102;2022-09-30T05:07:45;14.50;;;5.25;;
62258;SDS011;48241;48.824;10.102;2022-09-30T05:10:11;16.05;;;5.80;;
62258;SDS011;48241;48.824;10.102;2022-09-30T05:12:37;17.88;;;6.63;;
62258;SDS011;48241;48.824;10.102;2022-09-30T05:15:04;17.75;;;9.40;;
62258;SDS011;48241;48.824;10.102;2022-09-30T05:17:31;15.45;;;7.22;;
62258;SDS011;48241;48.824;10.102;2022-09-30T05:19:56;12.88;;;6.35;;
62258;SDS011;48241;48.824;10.102;2022-09-30T05:22:22;11.80;;;7.28;;
62258;SDS011;48241;48.824;10.102;2022-09-30T05:24:49;10.10;;;7.22;;
62258;SDS011;48241;48.824;10.102;2022-09-30T05:27:20;9.88;;;6.75;;
62258;SDS011;48241;48.824;10.102;2022-09-30T05:29:46;10.88;;;8.57;;
62258;SDS011;48241;48.824;10.102;2022-09-30T05:32:12;14.13;;;7.38;;
62258;SDS011;48241;48.824;10.102;2022-09-30T05:34:37;13.73;;;7.72;;
62258;SDS011;48241;48.824;10.102;2022-09-30T05:37:03;15.15;;;8.02;;
62258;SDS011;48241;48.824;10.102;2022-09-30T05:39:30;13.00;;;7.72;;
62258;SDS011;48241;48.824;10.102;2022-09-30T05:41:56;13.80;;;7.30;;
62258;SDS011;48241;48.824;10.102;2022-09-30T05:44:22;11.07;;;7.43;;
62258;SDS011;48241;48.824;10.102;2022-09-30T05:46:48;12.60;;;7.00;;
62258;SDS011;48241;48.824;10.102;2022-09-30T05:49:13;16.25;;;7.53;;
62258;SDS011;48241;48.824;10.102;2022-09-30T05:51:39;12.85;;;7.15;;
62258;SDS011;48241;48.824;10.102;2022-09-30T05:54:05;12.75;;;7.63;;
62258;SDS011;48241;48.824;10.102;2022-09-30T05:56:30;12.40;;;7.03;;
62258;SDS011;48241;48.824;10.102;2022-09-30T05:58:58;13.15;;;7.07;;
62258;SDS011;48241;48.824;10.102;2022-09-30T06:01:24;12.85;;;7.63;;
62258;SDS011;48241;48.824;10.102;2022-09-30T06:03:49;14.15;;;7.25;;
62258;SDS011;48241;48.824;10.102;2022-09-30T06:06:15;10.63;;;7.13;;
62258;SDS011;48241;48.824;10.102;2022-09-30T06:08:43;15.32;;;7.97;;
62258;SDS011;48241;48.824;10.102;2022-09-30T06:11:09;17.70;;;8.70;;
62258;SDS011;48241;48.824;10.102;2022-09-30T06:13:37;17.58;;;8.88;;
62258;SDS011;48241;48.824;10.102;2022-09-30T06:16:03;14.32;;;8.90;;
62258;SDS011;48241;48.824;10.102;2022-09-30T06:18:29;14.65;;;8.43;;
62258;SDS011;48241;48.824;10.102;2022-09-30T06:20:56;18.17;;;8.98;;
62258;SDS011;48241;48.824;10.102;2022-09-30T06:23:26;18.58;;;12.43;;
62258;SDS011;48241;48.824;10.102;2022-09-30T06:25:53;18.65;;;10.55;;
62258;SDS011;48241;48.824;10.102;2022-09-30T06:28:20;15.70;;;11.23;;
62258;SDS011;48241;48.824;10.102;2022-09-30T06:30:46;18.85;;;11.10;;
62258;SDS011;48241;48.824;10.102;2022-09-30T06:33:13;19.13;;;11.02;;
62258;SDS011;48241;48.824;10.102;2022-09-30T06:35:39;21.05;;;11.05;;
62258;SDS011;48241;48.824;10.102;2022-09-30T06:38:07;17.98;;;10.50;;
62258;SDS011;48241;48.824;10.102;2022-09-30T06:40:33;16.02;;;10.05;;
62258;SDS011;48241;48.824;10.102;2022-09-30T06:42:59;19.20;;;11.50;;
62258;SDS011;48241;48.824;10.102;2022-09-30T06:45:26;16.63;;;10.75;;
62258;SDS011;48241;48.824;10.102;2022-09-30T06:47:58;15.40;;;9.88;;
62258;SDS011;48241;48.824;10.102;2022-09-30T06:50:24;15.30;;;9.95;;
62258;SDS011;48241;48.824;10.102;2022-09-30T06:52:50;14.82;;;8.48;;
62258;SDS011;48241;48.824;10.102;2022-09-30T06:55:18;11.48;;;6.55;;
62258;SDS011;48241;48.824;10.102;2022-09-30T06:57:48;13.52;;;7.00;;
62258;SDS011;48241;48.824;10.102;2022-09-30T07:00:14;15.30;;;8.55;;
62258;SDS011;48241;48.824;10.102;2022-09-30T07:02:41;14.68;;;8.82;;
62258;SDS011;48241;48.824;10.102;2022-09-30T07:05:07;21.67;;;9.68;;
62258;SDS011;48241;48.824;10.102;2022-09-30T07:07:33;15.57;;;9.73;;
62258;SDS011;48241;48.824;10.102;2022-09-30T07:10:00;13.88;;;9.25;;
62258;SDS011;48241;48.824;10.102;2022-09-30T07:12:27;15.07;;;8.98;;
62258;SDS011;48241;48.824;10.102;2022-09-30T07:14:53;15.88;;;10.27;;
62258;SDS011;48241;48.824;10.102;2022-09-30T07:17:20;19.10;;;11.05;;
62258;SDS011;48241;48.824;10.102;2022-09-30T07:19:46;14.93;;;10.05;;
62258;SDS011;48241;48.824;10.102;2022-09-30T07:22:11;14.15;;;9.65;;
62258;SDS011;48241;48.824;10.102;2022-09-30T07:24:54;11.63;;;8.15;;
62258;SDS011;48241;48.824;10.102;2022-09-30T07:27:24;10.95;;;7.40;;
62258;SDS011;48241;48.824;10.102;2022-09-30T07:29:51;10.88;;;7.25;;
62258;SDS011;48241;48.824;10.102;2022-09-30T07:32:17;10.30;;;7.40;;
62258;SDS011;48241;48.824;10.102;2022-09-30T07:34:43;12.65;;;7.63;;
62258;SDS011;48241;48.824;10.102;2022-09-30T07:37:09;10.95;;;7.25;;
62258;SDS011;48241;48.824;10.102;2022-09-30T07:39:36;9.38;;;7.18;;
62258;SDS011;48241;48.824;10.102;2022-09-30T07:42:02;8.40;;;6.30;;
62258;SDS011;48241;48.824;10.102;2022-09-30T07:44:29;7.85;;;5.47;;
62258;SDS011;48241;48.824;10.102;2022-09-30T07:46:56;7.78;;;5.72;;
62258;SDS011;48241;48.824;10.102;2022-09-30T07:49:22;7.38;;;5.40;;
62258;SDS011;48241;48.824;10.102;2022-09-30T07:51:49;7.63;;;5.13;;
62258;SDS011;48241;48.824;10.102;2022-09-30T07:54:17;5.03;;;4.53;;
62258;SDS011;48241;48.824;10.102;2022-09-30T07:56:46;6.80;;;4.95;;
62258;SDS011;48241;48.824;10.102;2022-09-30T07:59:13;5.15;;;4.63;;
62258;SDS011;48241;48.824;10.102;2022-09-30T08:01:39;6.05;;;4.78;;
62258;SDS011;48241;48.824;10.102;2022-09-30T08:04:06;6.90;;;4.80;;
62258;SDS011;48241;48.824;10.102;2022-09-30T08:06:35;5.07;;;4.10;;
62258;SDS011;48241;48.824;10.102;2022-09-30T08:09:04;4.28;;;3.88;;
62258;SDS011;48241;48.824;10.102;2022-09-30T08:11:33;6.28;;;4.40;;
62258;SDS011;48241;48.824;10.102;2022-09-30T08:14:01;4.93;;;4.43;;
62258;SDS011;48241;48.824;10.102;2022-09-30T08:16:28;6.10;;;4.22;;
62258;SDS011;48241;48.824;10.102;2022-09-30T08:18:55;5.60;;;4.53;;
62258;SDS011;48241;48.824;10.102;2022-09-30T08:21:22;5.00;;;4.35;;
62258;SDS011;48241;48.824;10.102;2022-09-30T08:23:48;8.18;;;3.97;;
62258;SDS011;48241;48.824;10.102;2022-09-30T08:26:14;5.03;;;3.90;;
62258;SDS011;48241;48.824;10.102;2022-09-30T08:28:40;4.57;;;3.58;;
62258;SDS011;48241;48.824;10.102;2022-09-30T08:31:09;4.85;;;3.63;;
62258;SDS011;48241;48.824;10.102;2022-09-30T08:33:39;5.43;;;3.55;;
62258;SDS011;48241;48.824;10.102;2022-09-30T08:36:10;4.13;;;3.70;;
62258;SDS011;48241;48.824;10.102;2022-09-30T08:38:54;4.22;;;3.42;;
62258;SDS011;48241;48.824;10.102;2022-09-30T08:44:25;4.82;;;3.97;;
62258;SDS011;48241;48.824;10.102;2022-09-30T08:50:23;8.98;;;5.18;;
62258;SDS011;48241;48.824;10.102;2022-09-30T08:53:00;8.13;;;5.43;;
62258;SDS011;48241;48.824;10.102;2022-09-30T08:55:40;8.05;;;5.03;;
62258;SDS011;48241;48.824;10.102;2022-09-30T08:58:15;11.63;;;4.88;;
62258;SDS011;48241;48.824;10.102;2022-09-30T09:00:50;8.60;;;5.37;;
62258;SDS011;48241;48.824;10.102;2022-09-30T09:03:22;5.20;;;4.40;;
62258;SDS011;48241;48.824;10.102;2022-09-30T09:05:55;5.93;;;4.60;;
62258;SDS011;48241;48.824;10.102;2022-09-30T09:14:12;6.97;;;4.95;;
62258;SDS011;48241;48.824;10.102;2022-09-30T09:16:54;6.07;;;4.85;;
62258;SDS011;48241;48.824;10.102;2022-09-30T09:19:46;5.95;;;4.22;;
62258;SDS011;48241;48.824;10.102;2022-09-30T09:22:28;6.05;;;4.28;;
62258;SDS011;48241;48.824;10.102;2022-09-30T09:24:55;5.65;;;4.18;;
62258;SDS011;48241;48.824;10.102;2022-09-30T09:33:24;5.65;;;3.80;;
62258;SDS011;48241;48.824;10.102;2022-09-30T09:39:29;5.25;;;3.78;;
62258;SDS011;48241;48.824;10.102;2022-09-30T09:47:28;6.55;;;4.80;;
62258;SDS011;48241;48.824;10.102;2022-09-30T09:49:58;6.07;;;4.90;;
62258;SDS011;48241;48.824;10.102;2022-09-30T09:54:59;8.05;;;5.10;;
62258;SDS011;48241;48.824;10.102;2022-09-30T09:57:25;7.03;;;5.32;;
62258;SDS011;48241;48.824;10.102;2022-09-30T10:03:17;7.50;;;5.72;;
62258;SDS011;48241;48.824;10.102;2022-09-30T10:06:07;7.50;;;5.18;;
62258;SDS011;48241;48.824;10.102;2022-09-30T10:08:35;8.27;;;6.20;;
62258;SDS011;48241;48.824;10.102;2022-09-30T10:11:04;7.82;;;6.07;;
62258;SDS011;48241;48.824;10.102;2022-09-30T10:13:40;9.55;;;6.82;;
62258;SDS011;48241;48.824;10.102;2022-09-30T10:16:21;8.63;;;6.50;;
62258;SDS011;48241;48.824;10.102;2022-09-30T10:18:55;9.50;;;6.07;;
62258;SDS011;48241;48.824;10.102;2022-09-30T10:21:26;7.88;;;5.93;;
62258;SDS011;48241;48.824;10.102;2022-09-30T10:23:53;9.63;;;6.53;;
62258;SDS011;48241;48.824;10.102;2022-09-30T10:26:19;9.82;;;6.57;;
62258;SDS011;48241;48.824;10.102;2022-09-30T10:31:29;7.15;;;5.32;;
62258;SDS011;48241;48.824;10.102;2022-09-30T10:36:35;10.65;;;6.70;;
62258;SDS011;48241;48.824;10.102;2022-09-30T10:39:05;10.15;;;7.10;;
62258;SDS011;48241;48.824;10.102;2022-09-30T10:41:59;9.48;;;7.05;;
62258;SDS011;48241;48.824;10.102;2022-09-30T10:44:27;11.40;;;7.65;;
62258;SDS011;48241;48.824;10.102;2022-09-30T10:46:57;11.63;;;7.63;;
62258;SDS011;48241;48.824;10.102;2022-09-30T10:52:24;11.18;;;8.18;;
62258;SDS011;48241;48.824;10.102;2022-09-30T10:54:53;11.82;;;8.60;;
62258;SDS011;48241;48.824;10.102;2022-09-30T10:59:49;12.23;;;7.93;;
62258;SDS011;48241;48.824;10.102;2022-09-30T11:02:27;11.00;;;7.70;;
62258;SDS011;48241;48.824;10.102;2022-09-30T11:05:04;9.57;;;7.22;;
62258;SDS011;48241;48.824;10.102;2022-09-30T11:07:47;8.98;;;6.63;;
62258;SDS011;48241;48.824;10.102;2022-09-30T11:12:51;8.25;;;5.78;;
62258;SDS011;48241;48.824;10.102;2022-09-30T11:18:12;8.30;;;6.72;;
62258;SDS011;48241;48.824;10.102;2022-09-30T11:20:53;9.65;;;5.97;;
62258;SDS011;48241;48.824;10.102;2022-09-30T11:26:00;7.35;;;5.70;;
62258;SDS011;48241;48.824;10.102;2022-09-30T11:39:33;6.13;;;4.53;;
62258;SDS011;48241;48.824;10.102;2022-09-30T11:42:13;6.50;;;4.95;;
62258;SDS011;48241;48.824;10.102;2022-09-30T11:44:58;6.35;;;4.28;;
62258;SDS011;48241;48.824;10.102;2022-09-30T11:51:04;4.85;;;3.97;;
62258;SDS011;48241;48.824;10.102;2022-09-30T11:53:59;5.15;;;3.47;;
62258;SDS011;48241;48.824;10.102;2022-09-30T11:59:09;5.13;;;3.90;;
62258;SDS011;48241;48.824;10.102;2022-09-30T12:01:47;6.38;;;4.25;;
62258;SDS011;48241;48.824;10.102;2022-09-30T12:06:49;4.80;;;3.28;;
62258;SDS011;48241;48.824;10.102;2022-09-30T12:09:24;4.03;;;3.22;;
62258;SDS011;48241;48.824;10.102;2022-09-30T12:12:10;5.53;;;3.38;;
62258;SDS011;48241;48.824;10.102;2022-09-30T12:14:42;3.70;;;2.90;;
62258;SDS011;48241;48.824;10.102;2022-09-30T12:20:06;3.20;;;2.80;;
62258;SDS011;48241;48.824;10.102;2022-09-30T12:22:49;5.07;;;2.80;;
62258;SDS011;48241;48.824;10.102;2022-09-30T12:25:20;5.38;;;2.33;;
62258;SDS011;48241;48.824;10.102;2022-09-30T12:27:55;4.32;;;2.38;;
62258;SDS011;48241;48.824;10.102;2022-09-30T12:30:54;4.32;;;2.22;;
62258;SDS011;48241;48.824;10.102;2022-09-30T12:50:17;2.92;;;2.33;;
62258;SDS011;48241;48.824;10.102;2022-09-30T12:52:45;3.35;;;2.38;;
62258;SDS011;48241;48.824;10.102;2022-09-30T12:55:18;2.50;;;1.90;;
62258;SDS011;48241;48.824;10.102;2022-09-30T12:57:49;2.40;;;1.85;;
62258;SDS011;48241;48.824;10.102;2022-09-30T13:00:17;4.68;;;2.15;;
62258;SDS011;48241;48.824;10.102;2022-09-30T13:02:56;3.80;;;1.95;;
62258;SDS011;48241;48.824;10.102;2022-09-30T13:13:24;4.18;;;2.30;;
62258;SDS011;48241;48.824;10.102;2022-09-30T13:15:55;5.20;;;2.60;;
62258;SDS011;48241;48.824;10.102;2022-09-30T13:23:35;4.97;;;3.70;;
62258;SDS011;48241;48.824;10.102;2022-09-30T13:26:03;4.15;;;3.35;;
62258;SDS011;48241;48.824;10.102;2022-09-30T13:28:50;4.05;;;2.88;;
62258;SDS011;48241;48.824;10.102;2022-09-30T13:31:18;3.88;;;2.47;;
62258;SDS011;48241;48.824;10.102;2022-09-30T13:34:01;3.67;;;2.55;;
62258;SDS011;48241;48.824;10.102;2022-09-30T13:44:39;2.40;;;1.63;;
62258;SDS011;48241;48.824;10.102;2022-09-30T13:47:32;2.45;;;1.88;;
62258;SDS011;48241;48.824;10.102;2022-09-30T13:52:41;3.28;;;2.50;;
62258;SDS011;48241;48.824;10.102;2022-09-30T13:55:16;1.80;;;1.63;;
62258;SDS011;48241;48.824;10.102;2022-09-30T13:57:59;2.65;;;2.42;;
62258;SDS011;48241;48.824;10.102;2022-09-30T14:00:56;5.30;;;3.20;;
62258;SDS011;48241;48.824;10.102;2022-09-30T14:03:40;2.90;;;2.60;;
62258;SDS011;48241;48.824;10.102;2022-09-30T14:09:14;2.67;;;2.33;;
62258;SDS011;48241;48.824;10.102;2022-09-30T14:17:16;3.22;;;2.58;;
62258;SDS011;48241;48.824;10.102;2022-09-30T14:22:42;2.67;;;2.22;;
62258;SDS011;48241;48.824;10.102;2022-09-30T14:25:12;2.95;;;2.17;;
62258;SDS011;48241;48.824;10.102;2022-09-30T14:30:23;4.70;;;2.30;;
62258;SDS011;48241;48.824;10.102;2022-09-30T14:35:23;3.38;;;2.03;;
62258;SDS011;48241;48.824;10.102;2022-09-30T14:40:27;2.40;;;1.52;;
62258;SDS011;48241;48.824;10.102;2022-09-30T14:42:57;2.95;;;1.40;;
62258;SDS011;48241;48.824;10.102;2022-09-30T14:45:28;3.22;;;1.52;;
62258;SDS011;48241;48.824;10.102;2022-09-30T14:48:01;3.33;;;1.30;;
62258;SDS011;48241;48.824;10.102;2022-09-30T14:50:35;3.75;;;1.75;;
62258;SDS011;48241;48.824;10.102;2022-09-30T14:53:20;2.67;;;1.80;;
62258;SDS011;48241;48.824;10.102;2022-09-30T14:55:52;1.98;;;1.60;;
62258;SDS011;48241;48.824;10.102;2022-09-30T15:03:32;4.03;;;1.60;;
62258;SDS011;48241;48.824;10.102;2022-09-30T15:06:00;2.13;;;1.50;;
62258;SDS011;48241;48.824;10.102;2022-09-30T15:08:26;3.28;;;1.40;;
62258;SDS011;48241;48.824;10.102;2022-09-30T15:10:53;4.72;;;1.33;;
62258;SDS011;48241;48.824;10.102;2022-09-30T15:13:20;4.28;;;1.40;;
62258;SDS011;48241;48.824;10.102;2022-09-30T15:15:49;4.13;;;1.35;;
62258;SDS011;48241;48.824;10.102;2022-09-30T15:18:24;3.60;;;1.20;;
62258;SDS011;48241;48.824;10.102;2022-09-30T15:21:09;4.10;;;1.50;;
62258;SDS011;48241;48.824;10.102;2022-09-30T15:23:37;2.67;;;1.50;;
62258;SDS011;48241;48.824;10.102;2022-09-30T15:26:06;3.20;;;1.40;;
62258;SDS011;48241;48.824;10.102;2022-09-30T15:28:35;2.60;;;1.40;;
62258;SDS011;48241;48.824;10.102;2022-09-30T15:31:02;1.40;;;1.20;;
62258;SDS011;48241;48.824;10.102;2022-09-30T15:33:29;3.45;;;1.48;;
62258;SDS011;48241;48.824;10.102;2022-09-30T15:36:00;1.27;;;1.00;;
62258;SDS011;48241;48.824;10.102;2022-09-30T15:38:27;1.33;;;1.20;;
62258;SDS011;48241;48.824;10.102;2022-09-30T15:41:13;1.45;;;0.98;;
62258;SDS011;48241;48.824;10.102;2022-09-30T15:46:21;1.52;;;1.27;;
62258;SDS011;48241;48.824;10.102;2022-09-30T15:49:09;2.42;;;1.35;;
62258;SDS011;48241;48.824;10.102;2022-09-30T15:51:55;2.28;;;1.20;;
62258;SDS011;48241;48.824;10.102;2022-09-30T15:54:55;2.83;;;1.52;;
62258;SDS011;48241;48.824;10.102;2022-09-30T16:05:51;2.42;;;1.63;;
62258;SDS011;48241;48.824;10.102;2022-09-30T16:08:24;5.85;;;1.70;;
62258;SDS011;48241;48.824;10.102;2022-09-30T16:10:54;2.65;;;1.60;;
62258;SDS011;48241;48.824;10.102;2022-09-30T16:13:22;2.55;;;1.90;;
62258;SDS011;48241;48.824;10.102;2022-09-30T16:15:54;2.15;;;1.67;;
62258;SDS011;48241;48.824;10.102;2022-09-30T16:18:25;3.60;;;2.00;;
62258;SDS011;48241;48.824;10.102;2022-09-30T16:20:59;3.83;;;1.75;;
62258;SDS011;48241;48.824;10.102;2022-09-30T16:23:28;4.32;;;1.80;;
62258;SDS011;48241;48.824;10.102;2022-09-30T16:26:17;2.75;;;1.75;;
62258;SDS011;48241;48.824;10.102;2022-09-30T16:28:48;5.93;;;1.83;;
62258;SDS011;48241;48.824;10.102;2022-09-30T16:31:15;3.25;;;1.95;;
62258;SDS011;48241;48.824;10.102;2022-09-30T16:33:41;1.92;;;1.50;;
62258;SDS011;48241;48.824;10.102;2022-09-30T16:36:08;2.88;;;1.40;;
62258;SDS011;48241;48.824;10.102;2022-09-30T16:38:35;3.05;;;1.73;;
62258;SDS011;48241;48.824;10.102;2022-09-30T16:41:01;4.05;;;1.70;;
62258;SDS011;48241;48.824;10.102;2022-09-30T16:43:30;2.13;;;1.70;;
62258;SDS011;48241;48.824;10.102;2022-09-30T16:45:56;4.32;;;1.88;;
62258;SDS011;48241;48.824;10.102;2022-09-30T16:48:23;3.55;;;1.75;;
62258;SDS011;48241;48.824;10.102;2022-09-30T16:53:38;3.78;;;1.90;;
62258;SDS011;48241;48.824;10.102;2022-09-30T16:56:05;3.47;;;1.90;;
62258;SDS011;48241;48.824;10.102;2022-09-30T16:58:37;2.78;;;1.73;;
62258;SDS011;48241;48.824;10.102;2022-09-30T17:01:03;3.70;;;1.90;;
62258;SDS011;48241;48.824;10.102;2022-09-30T17:03:28;4.28;;;2.30;;
62258;SDS011;48241;48.824;10.102;2022-09-30T17:05:55;2.60;;;1.88;;
62258;SDS011;48241;48.824;10.102;2022-09-30T17:08:21;3.35;;;1.75;;
62258;SDS011;48241;48.824;10.102;2022-09-30T17:10:48;3.33;;;1.98;;
62258;SDS011;48241;48.824;10.102;2022-09-30T17:13:16;4.93;;;1.88;;
62258;SDS011;48241;48.824;10.102;2022-09-30T17:15:45;3.70;;;2.00;;
62258;SDS011;48241;48.824;10.102;2022-09-30T17:18:15;2.60;;;1.73;;
62258;SDS011;48241;48.824;10.102;2022-09-30T17:20:42;3.70;;;2.00;;
62258;SDS011;48241;48.824;10.102;2022-09-30T17:23:09;6.65;;;4.18;;
62258;SDS011;48241;48.824;10.102;2022-09-30T17:25:39;7.13;;;4.35;;
62258;SDS011;48241;48.824;10.102;2022-09-30T17:28:05;4.22;;;3.00;;
62258;SDS011;48241;48.824;10.102;2022-09-30T17:30:31;10.73;;;7.68;;
62258;SDS011;48241;48.824;10.102;2022-09-30T17:32:57;8.32;;;6.25;;
62258;SDS011;48241;48.824;10.102;2022-09-30T17:35:23;13.25;;;9.32;;
62258;SDS011;48241;48.824;10.102;2022-09-30T17:37:49;13.05;;;8.30;;
62258;SDS011;48241;48.824;10.102;2022-09-30T17:40:14;10.15;;;6.63;;
62258;SDS011;48241;48.824;10.102;2022-09-30T17:42:58;17.35;;;12.48;;
62258;SDS011;48241;48.824;10.102;2022-09-30T17:45:37;13.00;;;9.88;;
62258;SDS011;48241;48.824;10.102;2022-09-30T17:48:04;18.17;;;12.80;;
62258;SDS011;48241;48.824;10.102;2022-09-30T17:50:36;20.25;;;11.90;;
62258;SDS011;48241;48.824;10.102;2022-09-30T17:53:03;17.50;;;12.95;;
62258;SDS011;48241;48.824;10.102;2022-09-30T17:55:29;17.70;;;12.32;;
62258;SDS011;48241;48.824;10.102;2022-09-30T17:57:57;19.73;;;13.50;;
62258;SDS011;48241;48.824;10.102;2022-09-30T18:00:25;18.42;;;13.27;;
62258;SDS011;48241;48.824;10.102;2022-09-30T18:02:52;20.50;;;12.73;;
62258;SDS011;48241;48.824;10.102;2022-09-30T18:05:18;8.98;;;5.05;;
62258;SDS011;48241;48.824;10.102;2022-09-30T18:07:44;14.00;;;8.00;;
62258;SDS011;48241;48.824;10.102;2022-09-30T18:10:10;16.17;;;10.93;;
62258;SDS011;48241;48.824;10.102;2022-09-30T18:12:36;21.25;;;14.48;;
62258;SDS011;48241;48.824;10.102;2022-09-30T18:15:02;22.98;;;14.15;;
62258;SDS011;48241;48.824;10.102;2022-09-30T18:17:27;21.70;;;14.43;;
62258;SDS011;48241;48.824;10.102;2022-09-30T18:19:53;26.75;;;15.55;;
62258;SDS011;48241;48.824;10.102;2022-09-30T18:22:19;21.63;;;14.65;;